sensor_id;sensor_type;location;lat;lon;timestamp;P1;durP1;ratioP1;P2;durP2;ratioP2
68593;SDS011;55563;52.416;13.548;2023-04-24T00:01:13;2.55;;;2.10;;
68593;SDS011;55563;52.416;13.548;2023-04-24T00:03:41;2.10;;;1.90;;
68593;SDS011;55563;52.416;13.548;2023-04-24T00:05:49;2.33;;;1.98;;
68593;SDS011;55563;52.416;13.548;2023-04-24T00:08:17;2.42;;;1.90;;
68593;SDS011;55563;52.416;13.548;2023-04-24T00:10:25;2.22;;;1.90;;
68593;SDS011;55563;52.416;13.548;2023-04-24T00:12:52;3.15;;;2.00;;
68593;SDS011;55563;52.416;13.548;2023-04-24T00:15:20;2.40;;;2.08;;
68593;SDS011;55563;52.416;13.548;2023-04-24T00:17:28;2.90;;;2.30;;
68593;SDS011;55563;52.416;13.548;2023-04-24T00:19:48;2.88;;;2.20;;
68593;SDS011;55563;52.416;13.548;2023-04-24T00:21:58;2.80;;;2.15;;
68593;SDS011;55563;52.416;13.548;2023-04-24T00:24:18;3.22;;;2.10;;
68593;SDS011;55563;52.416;13.548;2023-04-24T00:26:26;2.95;;;1.92;;
68593;SDS011;55563;52.416;13.548;2023-04-24T00:28:53;2.53;;;2.10;;
68593;SDS011;55563;52.416;13.548;2023-04-24T00:31:08;2.83;;;2.10;;
68593;SDS011;55563;52.416;13.548;2023-04-24T00:33:17;2.92;;;2.40;;
68593;SDS011;55563;52.416;13.548;2023-04-24T00:35:32;2.35;;;1.75;;
68593;SDS011;55563;52.416;13.548;2023-04-24T00:37:34;2.28;;;1.90;;
68593;SDS011;55563;52.416;13.548;2023-04-24T00:39:36;2.95;;;2.35;;
68593;SDS011;55563;52.416;13.548;2023-04-24T00:41:38;2.83;;;2.35;;
68593;SDS011;55563;52.416;13.548;2023-04-24T00:43:40;3.95;;;2.13;;
68593;SDS011;55563;52.416;13.548;2023-04-24T00:45:41;3.45;;;2.00;;
68593;SDS011;55563;52.416;13.548;2023-04-24T00:47:43;2.90;;;2.28;;
68593;SDS011;55563;52.416;13.548;2023-04-24T00:49:46;3.20;;;2.17;;
68593;SDS011;55563;52.416;13.548;2023-04-24T00:51:47;4.28;;;2.20;;
68593;SDS011;55563;52.416;13.548;2023-04-24T00:53:51;3.03;;;1.88;;
68593;SDS011;55563;52.416;13.548;2023-04-24T00:55:54;3.03;;;2.17;;
68593;SDS011;55563;52.416;13.548;2023-04-24T00:57:56;2.90;;;2.22;;
68593;SDS011;55563;52.416;13.548;2023-04-24T00:59:59;2.88;;;2.05;;
68593;SDS011;55563;52.416;13.548;2023-04-24T01:02:01;2.92;;;2.30;;
68593;SDS011;55563;52.416;13.548;2023-04-24T01:04:02;3.45;;;2.35;;
68593;SDS011;55563;52.416;13.548;2023-04-24T01:06:08;5.28;;;2.33;;
68593;SDS011;55563;52.416;13.548;2023-04-24T01:08:14;3.42;;;2.20;;
68593;SDS011;55563;52.416;13.548;2023-04-24T01:10:16;2.60;;;2.22;;
68593;SDS011;55563;52.416;13.548;2023-04-24T01:12:19;2.80;;;2.20;;
68593;SDS011;55563;52.416;13.548;2023-04-24T01:14:26;3.40;;;2.45;;
68593;SDS011;55563;52.416;13.548;2023-04-24T01:18:43;3.05;;;2.38;;
68593;SDS011;55563;52.416;13.548;2023-04-24T01:20:45;4.32;;;2.50;;
68593;SDS011;55563;52.416;13.548;2023-04-24T01:22:48;3.65;;;2.50;;
68593;SDS011;55563;52.416;13.548;2023-04-24T01:24:50;3.20;;;2.33;;
68593;SDS011;55563;52.416;13.548;2023-04-24T01:26:54;2.60;;;2.17;;
68593;SDS011;55563;52.416;13.548;2023-04-24T01:28:57;2.80;;;2.38;;
68593;SDS011;55563;52.416;13.548;2023-04-24T01:30:59;3.17;;;2.25;;
68593;SDS011;55563;52.416;13.548;2023-04-24T01:33:02;3.58;;;2.40;;
68593;SDS011;55563;52.416;13.548;2023-04-24T01:35:06;2.78;;;2.22;;
68593;SDS011;55563;52.416;13.548;2023-04-24T01:37:09;3.05;;;2.28;;
68593;SDS011;55563;52.416;13.548;2023-04-24T01:39:30;2.95;;;2.33;;
68593;SDS011;55563;52.416;13.548;2023-04-24T01:41:47;3.80;;;2.50;;
68593;SDS011;55563;52.416;13.548;2023-04-24T01:44:00;4.03;;;2.50;;
68593;SDS011;55563;52.416;13.548;2023-04-24T01:46:16;3.75;;;2.75;;
68593;SDS011;55563;52.416;13.548;2023-04-24T01:48:29;2.97;;;2.33;;
68593;SDS011;55563;52.416;13.548;2023-04-24T01:50:45;3.17;;;2.40;;
68593;SDS011;55563;52.416;13.548;2023-04-24T01:53:05;3.17;;;2.60;;
68593;SDS011;55563;52.416;13.548;2023-04-24T01:55:22;2.60;;;2.20;;
68593;SDS011;55563;52.416;13.548;2023-04-24T01:57:36;3.80;;;2.35;;
68593;SDS011;55563;52.416;13.548;2023-04-24T01:59:51;3.15;;;2.55;;
68593;SDS011;55563;52.416;13.548;2023-04-24T02:02:04;3.58;;;2.40;;
68593;SDS011;55563;52.416;13.548;2023-04-24T02:04:19;3.55;;;2.25;;
68593;SDS011;55563;52.416;13.548;2023-04-24T02:06:32;3.45;;;2.65;;
68593;SDS011;55563;52.416;13.548;2023-04-24T02:08:47;3.60;;;2.55;;
68593;SDS011;55563;52.416;13.548;2023-04-24T02:11:09;2.85;;;2.33;;
68593;SDS011;55563;52.416;13.548;2023-04-24T02:13:24;3.85;;;2.65;;
68593;SDS011;55563;52.416;13.548;2023-04-24T02:15:37;3.20;;;2.42;;
68593;SDS011;55563;52.416;13.548;2023-04-24T02:17:53;2.97;;;2.50;;
68593;SDS011;55563;52.416;13.548;2023-04-24T02:22:28;2.97;;;2.30;;
68593;SDS011;55563;52.416;13.548;2023-04-24T02:24:42;3.75;;;2.50;;
68593;SDS011;55563;52.416;13.548;2023-04-24T02:26:57;3.20;;;2.53;;
68593;SDS011;55563;52.416;13.548;2023-04-24T02:29:10;3.28;;;2.70;;
68593;SDS011;55563;52.416;13.548;2023-04-24T02:31:25;4.28;;;2.33;;
68593;SDS011;55563;52.416;13.548;2023-04-24T02:33:39;3.08;;;2.53;;
68593;SDS011;55563;52.416;13.548;2023-04-24T02:35:53;3.40;;;2.55;;
68593;SDS011;55563;52.416;13.548;2023-04-24T02:38:13;3.08;;;2.40;;
68593;SDS011;55563;52.416;13.548;2023-04-24T02:40:28;3.15;;;2.45;;
68593;SDS011;55563;52.416;13.548;2023-04-24T02:43:07;3.08;;;2.63;;
68593;SDS011;55563;52.416;13.548;2023-04-24T02:45:22;3.50;;;2.58;;
68593;SDS011;55563;52.416;13.548;2023-04-24T02:49:50;3.28;;;2.47;;
68593;SDS011;55563;52.416;13.548;2023-04-24T02:54:18;3.08;;;2.50;;
68593;SDS011;55563;52.416;13.548;2023-04-24T02:56:38;4.40;;;2.78;;
68593;SDS011;55563;52.416;13.548;2023-04-24T02:58:53;4.00;;;2.42;;
68593;SDS011;55563;52.416;13.548;2023-04-24T03:01:14;3.10;;;2.50;;
68593;SDS011;55563;52.416;13.548;2023-04-24T03:03:22;4.32;;;2.67;;
68593;SDS011;55563;52.416;13.548;2023-04-24T03:05:43;3.40;;;2.63;;
68593;SDS011;55563;52.416;13.548;2023-04-24T03:07:57;2.97;;;2.40;;
68593;SDS011;55563;52.416;13.548;2023-04-24T03:10:18;3.03;;;2.35;;
68593;SDS011;55563;52.416;13.548;2023-04-24T03:12:32;3.47;;;2.72;;
68593;SDS011;55563;52.416;13.548;2023-04-24T03:14:54;3.60;;;2.70;;
68593;SDS011;55563;52.416;13.548;2023-04-24T03:17:08;3.13;;;2.58;;
68593;SDS011;55563;52.416;13.548;2023-04-24T03:19:22;4.22;;;3.00;;
68593;SDS011;55563;52.416;13.548;2023-04-24T03:21:43;3.20;;;2.33;;
68593;SDS011;55563;52.416;13.548;2023-04-24T03:23:58;3.55;;;2.60;;
68593;SDS011;55563;52.416;13.548;2023-04-24T03:26:12;3.10;;;2.67;;
68593;SDS011;55563;52.416;13.548;2023-04-24T03:28:40;3.92;;;3.00;;
68593;SDS011;55563;52.416;13.548;2023-04-24T03:30:54;3.03;;;2.50;;
68593;SDS011;55563;52.416;13.548;2023-04-24T03:33:19;3.13;;;2.50;;
68593;SDS011;55563;52.416;13.548;2023-04-24T03:35:35;3.58;;;2.75;;
68593;SDS011;55563;52.416;13.548;2023-04-24T03:38:03;3.35;;;2.40;;
68593;SDS011;55563;52.416;13.548;2023-04-24T03:40:42;5.07;;;2.97;;
68593;SDS011;55563;52.416;13.548;2023-04-24T03:43:16;3.67;;;2.75;;
68593;SDS011;55563;52.416;13.548;2023-04-24T03:45:23;4.10;;;3.05;;
68593;SDS011;55563;52.416;13.548;2023-04-24T03:47:51;3.25;;;2.50;;
68593;SDS011;55563;52.416;13.548;2023-04-24T03:49:59;4.85;;;2.83;;
68593;SDS011;55563;52.416;13.548;2023-04-24T03:52:27;3.17;;;2.55;;
68593;SDS011;55563;52.416;13.548;2023-04-24T03:54:34;3.13;;;2.53;;
68593;SDS011;55563;52.416;13.548;2023-04-24T03:57:04;3.75;;;2.58;;
68593;SDS011;55563;52.416;13.548;2023-04-24T03:59:37;5.25;;;3.13;;
68593;SDS011;55563;52.416;13.548;2023-04-24T04:01:57;3.78;;;2.75;;
68593;SDS011;55563;52.416;13.548;2023-04-24T04:04:12;4.40;;;2.97;;
68593;SDS011;55563;52.416;13.548;2023-04-24T04:06:26;3.33;;;2.40;;
68593;SDS011;55563;52.416;13.548;2023-04-24T04:08:41;3.40;;;2.70;;
68593;SDS011;55563;52.416;13.548;2023-04-24T04:10:55;4.00;;;2.72;;
68593;SDS011;55563;52.416;13.548;2023-04-24T04:13:09;3.35;;;2.63;;
68593;SDS011;55563;52.416;13.548;2023-04-24T04:15:23;5.07;;;3.00;;
68593;SDS011;55563;52.416;13.548;2023-04-24T04:17:37;4.93;;;2.65;;
68593;SDS011;55563;52.416;13.548;2023-04-24T04:19:51;3.55;;;2.72;;
68593;SDS011;55563;52.416;13.548;2023-04-24T04:22:05;4.88;;;2.78;;
68593;SDS011;55563;52.416;13.548;2023-04-24T04:24:23;6.82;;;3.33;;
68593;SDS011;55563;52.416;13.548;2023-04-24T04:26:33;4.10;;;2.90;;
68593;SDS011;55563;52.416;13.548;2023-04-24T04:28:56;5.88;;;3.10;;
68593;SDS011;55563;52.416;13.548;2023-04-24T04:31:04;6.47;;;3.50;;
68593;SDS011;55563;52.416;13.548;2023-04-24T04:33:32;6.03;;;3.58;;
68593;SDS011;55563;52.416;13.548;2023-04-24T04:36:00;7.15;;;3.53;;
68593;SDS011;55563;52.416;13.548;2023-04-24T04:38:12;7.55;;;3.70;;
68593;SDS011;55563;52.416;13.548;2023-04-24T04:40:47;8.48;;;3.90;;
68593;SDS011;55563;52.416;13.548;2023-04-24T04:43:19;6.47;;;4.13;;
68593;SDS011;55563;52.416;13.548;2023-04-24T04:45:28;6.95;;;4.50;;
68593;SDS011;55563;52.416;13.548;2023-04-24T04:48:09;10.23;;;5.40;;
68593;SDS011;55563;52.416;13.548;2023-04-24T04:50:19;6.28;;;4.00;;
68593;SDS011;55563;52.416;13.548;2023-04-24T04:55:01;4.20;;;3.15;;
68593;SDS011;55563;52.416;13.548;2023-04-24T04:57:35;4.35;;;3.05;;
68593;SDS011;55563;52.416;13.548;2023-04-24T04:59:49;4.90;;;3.47;;
68593;SDS011;55563;52.416;13.548;2023-04-24T05:02:17;3.80;;;2.55;;
68593;SDS011;55563;52.416;13.548;2023-04-24T05:04:31;4.50;;;3.13;;
68593;SDS011;55563;52.416;13.548;2023-04-24T05:06:38;3.80;;;2.95;;
68593;SDS011;55563;52.416;13.548;2023-04-24T05:09:09;4.45;;;2.95;;
68593;SDS011;55563;52.416;13.548;2023-04-24T05:11:34;4.53;;;3.03;;
68593;SDS011;55563;52.416;13.548;2023-04-24T05:13:48;3.92;;;2.75;;
68593;SDS011;55563;52.416;13.548;2023-04-24T05:16:10;3.65;;;2.17;;
68593;SDS011;55563;52.416;13.548;2023-04-24T05:18:25;3.85;;;2.15;;
68593;SDS011;55563;52.416;13.548;2023-04-24T05:20:40;3.78;;;2.65;;
68593;SDS011;55563;52.416;13.548;2023-04-24T05:22:55;4.13;;;2.40;;
68593;SDS011;55563;52.416;13.548;2023-04-24T05:25:10;2.83;;;2.00;;
68593;SDS011;55563;52.416;13.548;2023-04-24T05:27:33;3.15;;;2.17;;
68593;SDS011;55563;52.416;13.548;2023-04-24T05:29:46;3.13;;;2.55;;
68593;SDS011;55563;52.416;13.548;2023-04-24T05:32:14;2.97;;;2.40;;
68593;SDS011;55563;52.416;13.548;2023-04-24T05:34:28;3.65;;;1.80;;
68593;SDS011;55563;52.416;13.548;2023-04-24T05:36:42;2.35;;;1.92;;
68593;SDS011;55563;52.416;13.548;2023-04-24T05:38:56;3.17;;;2.13;;
68593;SDS011;55563;52.416;13.548;2023-04-24T05:41:12;2.85;;;2.20;;
68593;SDS011;55563;52.416;13.548;2023-04-24T05:43:26;2.88;;;2.10;;
68593;SDS011;55563;52.416;13.548;2023-04-24T05:47:54;5.60;;;1.85;;
68593;SDS011;55563;52.416;13.548;2023-04-24T05:50:15;1.98;;;1.70;;
68593;SDS011;55563;52.416;13.548;2023-04-24T05:52:22;3.13;;;2.03;;
68593;SDS011;55563;52.416;13.548;2023-04-24T05:54:46;2.50;;;1.65;;
68593;SDS011;55563;52.416;13.548;2023-04-24T05:57:04;1.50;;;1.40;;
68593;SDS011;55563;52.416;13.548;2023-04-24T05:59:30;3.28;;;1.60;;
68593;SDS011;55563;52.416;13.548;2023-04-24T06:01:44;3.25;;;1.20;;
68593;SDS011;55563;52.416;13.548;2023-04-24T06:04:05;2.80;;;1.52;;
68593;SDS011;55563;52.416;13.548;2023-04-24T06:06:20;1.75;;;1.48;;
68593;SDS011;55563;52.416;13.548;2023-04-24T06:08:41;2.42;;;1.45;;
68593;SDS011;55563;52.416;13.548;2023-04-24T06:10:57;1.55;;;1.17;;
68593;SDS011;55563;52.416;13.548;2023-04-24T06:13:11;1.50;;;1.40;;
68593;SDS011;55563;52.416;13.548;2023-04-24T06:15:40;2.78;;;1.23;;
68593;SDS011;55563;52.416;13.548;2023-04-24T06:18:10;2.25;;;1.13;;
68593;SDS011;55563;52.416;13.548;2023-04-24T06:20:24;1.23;;;1.13;;
68593;SDS011;55563;52.416;13.548;2023-04-24T06:22:45;2.20;;;1.58;;
68593;SDS011;55563;52.416;13.548;2023-04-24T06:24:52;1.70;;;1.20;;
68593;SDS011;55563;52.416;13.548;2023-04-24T06:27:13;1.33;;;1.23;;
68593;SDS011;55563;52.416;13.548;2023-04-24T06:29:21;1.40;;;1.30;;
68593;SDS011;55563;52.416;13.548;2023-04-24T06:31:42;2.83;;;2.53;;
68593;SDS011;55563;52.416;13.548;2023-04-24T06:33:51;1.50;;;1.33;;
68593;SDS011;55563;52.416;13.548;2023-04-24T06:36:19;1.23;;;1.13;;
68593;SDS011;55563;52.416;13.548;2023-04-24T06:38:26;1.42;;;1.33;;
68593;SDS011;55563;52.416;13.548;2023-04-24T06:40:47;1.45;;;1.13;;
68593;SDS011;55563;52.416;13.548;2023-04-24T06:42:54;1.63;;;1.20;;
68593;SDS011;55563;52.416;13.548;2023-04-24T06:45:17;1.58;;;1.08;;
68593;SDS011;55563;52.416;13.548;2023-04-24T06:47:25;1.52;;;1.15;;
68593;SDS011;55563;52.416;13.548;2023-04-24T06:49:53;1.10;;;0.93;;
68593;SDS011;55563;52.416;13.548;2023-04-24T06:52:21;1.40;;;0.82;;
68593;SDS011;55563;52.416;13.548;2023-04-24T06:54:29;2.28;;;1.20;;
68593;SDS011;55563;52.416;13.548;2023-04-24T06:56:50;1.23;;;1.05;;
68593;SDS011;55563;52.416;13.548;2023-04-24T07:00:01;1.15;;;0.93;;
68593;SDS011;55563;52.416;13.548;2023-04-24T07:02:23;1.17;;;0.95;;
68593;SDS011;55563;52.416;13.548;2023-04-24T07:04:31;1.25;;;0.90;;
68593;SDS011;55563;52.416;13.548;2023-04-24T07:06:59;0.80;;;0.80;;
68593;SDS011;55563;52.416;13.548;2023-04-24T07:09:27;1.10;;;0.93;;
68593;SDS011;55563;52.416;13.548;2023-04-24T07:11:34;0.98;;;0.88;;
68593;SDS011;55563;52.416;13.548;2023-04-24T07:13:56;0.85;;;0.85;;
68593;SDS011;55563;52.416;13.548;2023-04-24T07:16:03;1.45;;;1.30;;
68593;SDS011;55563;52.416;13.548;2023-04-24T07:18:31;0.80;;;0.70;;
68593;SDS011;55563;52.416;13.548;2023-04-24T07:21:00;0.90;;;0.90;;
68593;SDS011;55563;52.416;13.548;2023-04-24T07:23:07;0.85;;;0.70;;
68593;SDS011;55563;52.416;13.548;2023-04-24T07:25:35;0.98;;;0.95;;
68593;SDS011;55563;52.416;13.548;2023-04-24T07:28:12;1.15;;;1.08;;
68593;SDS011;55563;52.416;13.548;2023-04-24T07:30:40;0.82;;;0.82;;
68593;SDS011;55563;52.416;13.548;2023-04-24T07:33:08;0.70;;;0.70;;
68593;SDS011;55563;52.416;13.548;2023-04-24T07:35:25;1.15;;;1.05;;
68593;SDS011;55563;52.416;13.548;2023-04-24T07:37:48;2.42;;;0.80;;
68593;SDS011;55563;52.416;13.548;2023-04-24T07:39:55;0.95;;;0.95;;
68593;SDS011;55563;52.416;13.548;2023-04-24T07:42:17;1.35;;;0.73;;
68593;SDS011;55563;52.416;13.548;2023-04-24T07:44:24;2.10;;;0.90;;
68593;SDS011;55563;52.416;13.548;2023-04-24T07:46:52;1.02;;;0.70;;
68593;SDS011;55563;52.416;13.548;2023-04-24T07:49:20;0.98;;;0.82;;
68593;SDS011;55563;52.416;13.548;2023-04-24T07:51:28;0.80;;;0.80;;
68593;SDS011;55563;52.416;13.548;2023-04-24T07:53:51;0.80;;;0.60;;
68593;SDS011;55563;52.416;13.548;2023-04-24T07:55:58;0.60;;;0.60;;
68593;SDS011;55563;52.416;13.548;2023-04-24T07:58:19;1.63;;;0.95;;
68593;SDS011;55563;52.416;13.548;2023-04-24T08:00:26;1.73;;;1.00;;
68593;SDS011;55563;52.416;13.548;2023-04-24T08:02:54;0.82;;;0.82;;
68593;SDS011;55563;52.416;13.548;2023-04-24T08:05:01;0.80;;;0.80;;
68593;SDS011;55563;52.416;13.548;2023-04-24T08:07:29;0.77;;;0.70;;
68593;SDS011;55563;52.416;13.548;2023-04-24T08:09:36;0.70;;;0.63;;
68593;SDS011;55563;52.416;13.548;2023-04-24T08:11:45;0.68;;;0.65;;
68593;SDS011;55563;52.416;13.548;2023-04-24T08:13:47;0.98;;;0.80;;
68593;SDS011;55563;52.416;13.548;2023-04-24T08:15:56;1.60;;;0.85;;
68593;SDS011;55563;52.416;13.548;2023-04-24T08:18:03;0.93;;;0.70;;
68593;SDS011;55563;52.416;13.548;2023-04-24T08:20:32;0.68;;;0.68;;
68593;SDS011;55563;52.416;13.548;2023-04-24T08:23:00;1.23;;;0.57;;
68593;SDS011;55563;52.416;13.548;2023-04-24T08:25:08;0.55;;;0.50;;
68593;SDS011;55563;52.416;13.548;2023-04-24T08:27:30;0.68;;;0.60;;
68593;SDS011;55563;52.416;13.548;2023-04-24T08:29:37;0.65;;;0.65;;
68593;SDS011;55563;52.416;13.548;2023-04-24T08:34:05;0.57;;;0.57;;
68593;SDS011;55563;52.416;13.548;2023-04-24T08:36:33;0.90;;;0.52;;
68593;SDS011;55563;52.416;13.548;2023-04-24T08:38:48;0.57;;;0.57;;
68593;SDS011;55563;52.416;13.548;2023-04-24T08:41:01;0.60;;;0.60;;
68593;SDS011;55563;52.416;13.548;2023-04-24T08:43:15;0.80;;;0.80;;
68593;SDS011;55563;52.416;13.548;2023-04-24T08:45:30;0.93;;;0.63;;
68593;SDS011;55563;52.416;13.548;2023-04-24T08:47:46;0.60;;;0.60;;
68593;SDS011;55563;52.416;13.548;2023-04-24T08:50:08;0.47;;;0.47;;
68593;SDS011;55563;52.416;13.548;2023-04-24T08:52:16;0.70;;;0.70;;
68593;SDS011;55563;52.416;13.548;2023-04-24T08:54:38;0.95;;;0.63;;
68593;SDS011;55563;52.416;13.548;2023-04-24T08:56:47;0.50;;;0.50;;
68593;SDS011;55563;52.416;13.548;2023-04-24T08:59:08;0.60;;;0.60;;
68593;SDS011;55563;52.416;13.548;2023-04-24T09:03:36;0.40;;;0.40;;
68593;SDS011;55563;52.416;13.548;2023-04-24T09:05:50;0.63;;;0.63;;
68593;SDS011;55563;52.416;13.548;2023-04-24T09:08:13;0.65;;;0.65;;
68593;SDS011;55563;52.416;13.548;2023-04-24T09:12:43;0.80;;;0.73;;
68593;SDS011;55563;52.416;13.548;2023-04-24T09:14:50;0.63;;;0.63;;
68593;SDS011;55563;52.416;13.548;2023-04-24T09:17:11;1.08;;;0.60;;
68593;SDS011;55563;52.416;13.548;2023-04-24T09:19:25;0.63;;;0.63;;
68593;SDS011;55563;52.416;13.548;2023-04-24T09:21:39;0.55;;;0.55;;
68593;SDS011;55563;52.416;13.548;2023-04-24T09:23:59;1.35;;;0.85;;
68593;SDS011;55563;52.416;13.548;2023-04-24T09:26:14;0.88;;;0.70;;
68593;SDS011;55563;52.416;13.548;2023-04-24T09:28:30;0.52;;;0.52;;
68593;SDS011;55563;52.416;13.548;2023-04-24T09:33:16;0.82;;;0.63;;
68593;SDS011;55563;52.416;13.548;2023-04-24T09:35:37;0.75;;;0.75;;
68593;SDS011;55563;52.416;13.548;2023-04-24T09:37:48;1.10;;;0.75;;
68593;SDS011;55563;52.416;13.548;2023-04-24T09:40:19;1.00;;;0.77;;
68593;SDS011;55563;52.416;13.548;2023-04-24T09:42:51;0.73;;;0.70;;
68593;SDS011;55563;52.416;13.548;2023-04-24T09:45:01;0.93;;;0.93;;
68593;SDS011;55563;52.416;13.548;2023-04-24T09:49:29;0.85;;;0.82;;
68593;SDS011;55563;52.416;13.548;2023-04-24T09:52:09;0.65;;;0.63;;
68593;SDS011;55563;52.416;13.548;2023-04-24T09:54:17;0.82;;;0.82;;
68593;SDS011;55563;52.416;13.548;2023-04-24T09:56:41;0.75;;;0.75;;
68593;SDS011;55563;52.416;13.548;2023-04-24T09:58:51;0.68;;;0.63;;
68593;SDS011;55563;52.416;13.548;2023-04-24T10:01:34;0.63;;;0.63;;
68593;SDS011;55563;52.416;13.548;2023-04-24T10:04:04;0.70;;;0.70;;
68593;SDS011;55563;52.416;13.548;2023-04-24T10:06:17;0.82;;;0.82;;
68593;SDS011;55563;52.416;13.548;2023-04-24T10:08:33;0.63;;;0.55;;
68593;SDS011;55563;52.416;13.548;2023-04-24T10:10:48;0.60;;;0.60;;
68593;SDS011;55563;52.416;13.548;2023-04-24T10:13:03;1.17;;;0.73;;
68593;SDS011;55563;52.416;13.548;2023-04-24T10:15:17;0.95;;;0.95;;
68593;SDS011;55563;52.416;13.548;2023-04-24T10:17:28;0.70;;;0.68;;
68593;SDS011;55563;52.416;13.548;2023-04-24T10:21:56;0.70;;;0.60;;
68593;SDS011;55563;52.416;13.548;2023-04-24T10:24:24;1.20;;;0.70;;
68593;SDS011;55563;52.416;13.548;2023-04-24T10:26:52;1.20;;;0.60;;
68593;SDS011;55563;52.416;13.548;2023-04-24T10:29:00;0.75;;;0.70;;
68593;SDS011;55563;52.416;13.548;2023-04-24T10:31:23;0.70;;;0.70;;
68593;SDS011;55563;52.416;13.548;2023-04-24T10:33:32;0.63;;;0.63;;
68593;SDS011;55563;52.416;13.548;2023-04-24T10:35:54;0.85;;;0.82;;
68593;SDS011;55563;52.416;13.548;2023-04-24T10:38:05;0.77;;;0.73;;
68593;SDS011;55563;52.416;13.548;2023-04-24T10:40:30;1.13;;;1.02;;
68593;SDS011;55563;52.416;13.548;2023-04-24T10:42:40;0.95;;;0.93;;
68593;SDS011;55563;52.416;13.548;2023-04-24T10:45:16;0.88;;;0.80;;
68593;SDS011;55563;52.416;13.548;2023-04-24T10:48:02;0.85;;;0.82;;
68593;SDS011;55563;52.416;13.548;2023-04-24T10:50:12;1.00;;;0.90;;
68593;SDS011;55563;52.416;13.548;2023-04-24T10:52:47;1.00;;;0.82;;
68593;SDS011;55563;52.416;13.548;2023-04-24T10:55:21;0.93;;;0.93;;
68593;SDS011;55563;52.416;13.548;2023-04-24T10:58:36;1.05;;;0.95;;
68593;SDS011;55563;52.416;13.548;2023-04-24T11:01:06;1.38;;;0.70;;
68593;SDS011;55563;52.416;13.548;2023-04-24T11:03:34;0.88;;;0.82;;
68593;SDS011;55563;52.416;13.548;2023-04-24T11:06:04;0.70;;;0.70;;
68593;SDS011;55563;52.416;13.548;2023-04-24T11:08:14;0.82;;;0.80;;
68593;SDS011;55563;52.416;13.548;2023-04-24T11:10:40;1.17;;;0.70;;
68593;SDS011;55563;52.416;13.548;2023-04-24T11:12:50;1.25;;;0.90;;
68593;SDS011;55563;52.416;13.548;2023-04-24T11:15:18;0.80;;;0.80;;
68593;SDS011;55563;52.416;13.548;2023-04-24T11:17:31;1.67;;;1.58;;
68593;SDS011;55563;52.416;13.548;2023-04-24T11:20:04;1.20;;;0.80;;
68593;SDS011;55563;52.416;13.548;2023-04-24T11:22:34;0.75;;;0.75;;
68593;SDS011;55563;52.416;13.548;2023-04-24T11:27:17;2.13;;;0.80;;
68593;SDS011;55563;52.416;13.548;2023-04-24T11:29:44;1.15;;;0.90;;
68593;SDS011;55563;52.416;13.548;2023-04-24T11:37:22;1.30;;;1.20;;
68593;SDS011;55563;52.416;13.548;2023-04-24T11:39:53;1.85;;;0.98;;
68593;SDS011;55563;52.416;13.548;2023-04-24T11:42:23;1.67;;;1.20;;
68593;SDS011;55563;52.416;13.548;2023-04-24T11:44:33;1.50;;;1.00;;
68593;SDS011;55563;52.416;13.548;2023-04-24T11:46:55;1.70;;;1.02;;
68593;SDS011;55563;52.416;13.548;2023-04-24T11:49:03;0.77;;;0.77;;
68593;SDS011;55563;52.416;13.548;2023-04-24T11:51:31;1.98;;;0.90;;
68593;SDS011;55563;52.416;13.548;2023-04-24T11:53:38;1.15;;;1.02;;
68593;SDS011;55563;52.416;13.548;2023-04-24T11:56:06;0.90;;;0.80;;
68593;SDS011;55563;52.416;13.548;2023-04-24T11:58:34;0.90;;;0.90;;
68593;SDS011;55563;52.416;13.548;2023-04-24T12:00:55;1.15;;;1.05;;
68593;SDS011;55563;52.416;13.548;2023-04-24T12:03:10;1.50;;;1.00;;
68593;SDS011;55563;52.416;13.548;2023-04-24T12:05:27;1.83;;;0.90;;
68593;SDS011;55563;52.416;13.548;2023-04-24T12:07:41;1.60;;;1.25;;
68593;SDS011;55563;52.416;13.548;2023-04-24T12:10:02;1.17;;;1.00;;
68593;SDS011;55563;52.416;13.548;2023-04-24T12:12:10;0.90;;;0.90;;
68593;SDS011;55563;52.416;13.548;2023-04-24T12:14:32;1.25;;;1.15;;
68593;SDS011;55563;52.416;13.548;2023-04-24T12:16:39;1.38;;;1.15;;
68593;SDS011;55563;52.416;13.548;2023-04-24T12:19:00;3.10;;;1.17;;
68593;SDS011;55563;52.416;13.548;2023-04-24T12:21:16;1.20;;;0.90;;
68593;SDS011;55563;52.416;13.548;2023-04-24T12:23:47;1.05;;;0.95;;
68593;SDS011;55563;52.416;13.548;2023-04-24T12:26:16;1.20;;;1.10;;
68593;SDS011;55563;52.416;13.548;2023-04-24T12:28:25;2.55;;;1.13;;
68593;SDS011;55563;52.416;13.548;2023-04-24T12:31:03;1.42;;;1.10;;
68593;SDS011;55563;52.416;13.548;2023-04-24T12:33:32;1.50;;;0.98;;
68593;SDS011;55563;52.416;13.548;2023-04-24T12:35:41;2.13;;;1.00;;
68593;SDS011;55563;52.416;13.548;2023-04-24T12:40:24;1.13;;;0.85;;
68593;SDS011;55563;52.416;13.548;2023-04-24T12:42:44;1.25;;;0.90;;
68593;SDS011;55563;52.416;13.548;2023-04-24T12:45:01;0.80;;;0.80;;
68593;SDS011;55563;52.416;13.548;2023-04-24T12:47:19;1.52;;;0.70;;
68593;SDS011;55563;52.416;13.548;2023-04-24T12:49:33;0.85;;;0.85;;
68593;SDS011;55563;52.416;13.548;2023-04-24T12:51:47;0.90;;;0.90;;
68593;SDS011;55563;52.416;13.548;2023-04-24T12:54:01;0.65;;;0.65;;
68593;SDS011;55563;52.416;13.548;2023-04-24T12:56:15;0.60;;;0.60;;
68593;SDS011;55563;52.416;13.548;2023-04-24T12:58:29;1.63;;;0.70;;
68593;SDS011;55563;52.416;13.548;2023-04-24T13:00:50;0.60;;;0.60;;
68593;SDS011;55563;52.416;13.548;2023-04-24T13:02:57;1.73;;;0.70;;
68593;SDS011;55563;52.416;13.548;2023-04-24T13:05:18;0.70;;;0.70;;
68593;SDS011;55563;52.416;13.548;2023-04-24T13:07:25;0.73;;;0.73;;
68593;SDS011;55563;52.416;13.548;2023-04-24T13:09:47;0.68;;;0.68;;
68593;SDS011;55563;52.416;13.548;2023-04-24T13:11:55;0.70;;;0.60;;
68593;SDS011;55563;52.416;13.548;2023-04-24T13:14:16;0.65;;;0.65;;
68593;SDS011;55563;52.416;13.548;2023-04-24T13:16:23;1.02;;;0.70;;
68593;SDS011;55563;52.416;13.548;2023-04-24T13:18:44;0.70;;;0.70;;
68593;SDS011;55563;52.416;13.548;2023-04-24T13:20:51;0.80;;;0.80;;
68593;SDS011;55563;52.416;13.548;2023-04-24T13:23:12;1.38;;;0.80;;
68593;SDS011;55563;52.416;13.548;2023-04-24T13:25:26;0.73;;;0.60;;
68593;SDS011;55563;52.416;13.548;2023-04-24T13:27:47;0.73;;;0.73;;
68593;SDS011;55563;52.416;13.548;2023-04-24T13:32:15;0.55;;;0.55;;
68593;SDS011;55563;52.416;13.548;2023-04-24T13:34:29;0.80;;;0.80;;
68593;SDS011;55563;52.416;13.548;2023-04-24T13:36:50;0.70;;;0.70;;
68593;SDS011;55563;52.416;13.548;2023-04-24T13:39:06;1.40;;;0.70;;
68593;SDS011;55563;52.416;13.548;2023-04-24T13:41:27;1.10;;;0.70;;
68593;SDS011;55563;52.416;13.548;2023-04-24T13:43:35;1.08;;;0.68;;
68593;SDS011;55563;52.416;13.548;2023-04-24T13:45:56;1.48;;;0.80;;
68593;SDS011;55563;52.416;13.548;2023-04-24T13:50:24;1.25;;;1.15;;
68593;SDS011;55563;52.416;13.548;2023-04-24T13:52:31;0.95;;;0.85;;
68593;SDS011;55563;52.416;13.548;2023-04-24T13:54:52;0.75;;;0.75;;
68593;SDS011;55563;52.416;13.548;2023-04-24T13:56:59;0.50;;;0.50;;
68593;SDS011;55563;52.416;13.548;2023-04-24T13:59:20;1.33;;;0.65;;
68593;SDS011;55563;52.416;13.548;2023-04-24T14:01:28;1.75;;;0.75;;
68593;SDS011;55563;52.416;13.548;2023-04-24T14:03:49;0.90;;;0.75;;
68593;SDS011;55563;52.416;13.548;2023-04-24T14:06:04;1.33;;;0.68;;
68593;SDS011;55563;52.416;13.548;2023-04-24T14:08:18;0.88;;;0.77;;
68593;SDS011;55563;52.416;13.548;2023-04-24T14:10:32;0.70;;;0.70;;
68593;SDS011;55563;52.416;13.548;2023-04-24T14:12:53;0.82;;;0.80;;
68593;SDS011;55563;52.416;13.548;2023-04-24T14:15:00;0.70;;;0.70;;